createdAt,value
2019-04-05T00:00:28.243Z,12.40
2019-04-05T00:02:56.698Z,15.20
2019-04-05T00:05:25.491Z,16.50
2019-04-05T00:07:54.223Z,16.90
2019-04-05T00:10:22.802Z,16.47
2019-04-05T00:12:51.641Z,18.70
2019-04-05T00:15:20.162Z,16.90
2019-04-05T00:17:48.922Z,16.60
2019-04-05T00:20:17.430Z,19.37
2019-04-05T00:22:45.889Z,16.90
2019-04-05T00:25:14.579Z,19.60
2019-04-05T00:27:43.350Z,18.23
2019-04-05T00:30:12.599Z,15.70
2019-04-05T00:32:41.047Z,16.47
2019-04-05T00:35:09.553Z,15.37
2019-04-05T00:37:38.007Z,17.20
2019-04-05T00:40:08.955Z,14.53
2019-04-05T00:42:37.709Z,15.20
2019-04-05T00:45:07.758Z,14.80
2019-04-05T00:47:36.231Z,16.83
2019-04-05T00:50:06.817Z,17.33
2019-04-05T00:52:35.535Z,18.27
2019-04-05T00:55:06.481Z,15.70
2019-04-05T00:57:35.059Z,18.30
2019-04-05T01:00:04.803Z,18.73
2019-04-05T01:02:33.427Z,18.17
2019-04-05T01:05:02.139Z,18.33
2019-04-05T01:07:30.617Z,18.03
2019-04-05T01:09:59.134Z,18.90
2019-04-05T01:12:28.155Z,17.07
2019-04-05T01:14:56.943Z,18.30
2019-04-05T01:17:25.979Z,18.33
2019-04-05T01:19:57.780Z,20.77
2019-04-05T01:22:27.759Z,15.90
2019-04-05T01:24:57.606Z,14.77
2019-04-05T01:27:27.276Z,18.57
2019-04-05T01:29:56.068Z,15.87
2019-04-05T01:32:24.611Z,19.37
2019-04-05T01:34:53.171Z,18.37
2019-04-05T01:37:22.238Z,17.50
2019-04-05T01:39:50.924Z,19.00
2019-04-05T01:42:19.703Z,19.23
2019-04-05T01:44:48.283Z,19.47
2019-04-05T01:47:16.816Z,18.60
2019-04-05T01:49:45.266Z,21.23
2019-04-05T01:52:13.997Z,19.60
2019-04-05T01:54:42.443Z,19.80
2019-04-05T01:57:11.210Z,20.07
2019-04-05T01:59:39.949Z,19.73
2019-04-05T02:02:08.725Z,25.20
2019-04-05T02:04:37.164Z,23.80
2019-04-05T02:07:05.964Z,21.43
2019-04-05T02:09:35.235Z,18.40
2019-04-05T02:12:04.096Z,20.67
2019-04-05T02:14:32.595Z,18.67
2019-04-05T02:17:01.130Z,20.13
2019-04-05T02:19:29.859Z,20.17
2019-04-05T02:21:58.635Z,23.60
2019-04-05T02:24:27.371Z,24.03
2019-04-05T02:26:56.079Z,19.13
2019-04-05T02:29:24.621Z,23.50
2019-04-05T02:31:53.379Z,21.17
2019-04-05T02:34:21.840Z,22.70
2019-04-05T02:36:50.357Z,21.10
2019-04-05T02:39:18.965Z,20.87
2019-04-05T02:41:48.608Z,19.30
2019-04-05T02:44:17.621Z,19.60
2019-04-05T02:46:48.008Z,21.00
2019-04-05T02:49:17.110Z,21.33
2019-04-05T02:51:48.583Z,19.83
2019-04-05T02:54:19.443Z,21.20
2019-04-05T02:56:48.700Z,30.63
2019-04-05T02:59:18.613Z,21.67
2019-04-05T03:01:48.103Z,22.00
2019-04-05T03:04:16.719Z,19.87
2019-04-05T03:06:45.971Z,20.07
2019-04-05T03:09:14.642Z,20.47
2019-04-05T03:11:43.754Z,21.20
2019-04-05T03:14:14.037Z,24.57
2019-04-05T03:16:45.835Z,24.37
2019-04-05T03:19:17.574Z,22.27
2019-04-05T03:21:49.156Z,23.63
2019-04-05T03:24:21.044Z,23.70
2019-04-05T03:26:52.841Z,21.27
2019-04-05T03:29:21.764Z,23.37
2019-04-05T03:31:50.809Z,24.20
2019-04-05T03:34:19.755Z,21.87
2019-04-05T03:36:51.470Z,21.77
2019-04-05T03:39:19.300Z,23.00
2019-04-05T03:41:47.764Z,26.20
2019-04-05T03:44:16.573Z,24.50
2019-04-05T03:46:56.556Z,22.30
2019-04-05T03:49:15.538Z,20.70
2019-04-05T03:51:45.333Z,23.60
2019-04-05T03:54:14.111Z,24.67
2019-04-05T03:56:42.686Z,25.97
2019-04-05T03:59:11.472Z,24.17
2019-04-05T04:01:40.104Z,22.13
2019-04-05T04:04:08.563Z,24.57
2019-04-05T04:06:37.134Z,24.50
2019-04-05T04:09:06.337Z,28.20
2019-04-05T04:11:35.606Z,23.00
2019-04-05T04:14:05.013Z,23.80
2019-04-05T04:16:33.746Z,24.77
2019-04-05T04:19:02.911Z,25.87
2019-04-05T04:22:06.000Z,23.10
2019-04-05T04:24:34.627Z,23.40
2019-04-05T04:27:03.397Z,23.40
2019-04-05T04:29:32.381Z,23.13
2019-04-05T04:32:00.892Z,24.40
2019-04-05T04:34:29.428Z,22.37
2019-04-05T04:36:57.871Z,25.23
2019-04-05T04:39:26.578Z,25.37
2019-04-05T04:41:55.413Z,26.00
2019-04-05T04:44:24.068Z,23.17
2019-04-05T04:46:53.056Z,24.97
2019-04-05T04:49:21.720Z,25.60
2019-04-05T04:51:50.733Z,24.27
2019-04-05T04:54:19.628Z,27.43
2019-04-05T04:56:48.326Z,28.53
2019-04-05T04:59:17.120Z,30.20
2019-04-05T05:01:45.963Z,30.63
2019-04-05T05:04:14.666Z,27.90
2019-04-05T05:06:43.415Z,29.43
2019-04-05T05:09:12.115Z,26.43
2019-04-05T05:11:40.795Z,29.77
2019-04-05T05:14:09.602Z,27.40
2019-04-05T05:16:38.486Z,29.13
2019-04-05T05:19:07.410Z,29.97
2019-04-05T05:21:36.009Z,30.50
2019-04-05T05:24:04.782Z,31.93
2019-04-05T05:26:33.227Z,31.83
2019-04-05T05:29:01.959Z,31.90
2019-04-05T05:31:30.737Z,29.13
2019-04-05T05:33:59.802Z,31.43
2019-04-05T05:36:28.579Z,26.93
2019-04-05T05:38:57.516Z,33.23
2019-04-05T05:41:25.965Z,32.43
2019-04-05T05:43:54.731Z,33.47
2019-04-05T05:46:23.337Z,33.20
2019-04-05T05:48:51.780Z,29.07
2019-04-05T05:51:20.575Z,33.70
2019-04-05T05:53:49.844Z,34.70
2019-04-05T05:56:20.083Z,31.13
2019-04-05T05:58:48.531Z,29.47
2019-04-05T06:01:17.299Z,32.00
2019-04-05T06:03:46.056Z,28.60
2019-04-05T06:06:14.819Z,31.30
2019-04-05T06:08:43.598Z,31.50
2019-04-05T06:11:12.308Z,35.23
2019-04-05T06:13:40.753Z,33.20
2019-04-05T06:16:09.311Z,37.97
2019-04-05T06:18:38.067Z,32.80
2019-04-05T06:21:06.800Z,32.67
2019-04-05T06:23:35.381Z,35.53
2019-04-05T06:26:04.196Z,34.87
2019-04-05T06:28:32.674Z,34.57
2019-04-05T06:31:01.225Z,31.90
2019-04-05T06:33:31.889Z,40.70
2019-04-05T06:36:00.183Z,37.80
2019-04-05T06:38:28.881Z,36.93
2019-04-05T06:40:57.658Z,35.73
2019-04-05T06:43:26.088Z,34.80
2019-04-05T06:45:54.592Z,36.23
2019-04-05T06:48:23.530Z,38.93
2019-04-05T06:50:52.232Z,30.60
2019-04-05T06:53:20.675Z,34.17
2019-04-05T06:55:49.438Z,38.27
2019-04-05T06:58:28.879Z,41.23
2019-04-05T07:00:57.040Z,33.40
2019-04-05T07:03:18.601Z,37.23
2019-04-05T07:05:47.382Z,37.57
2019-04-05T07:08:18.339Z,31.07
2019-04-05T07:10:46.623Z,40.80
2019-04-05T07:13:15.189Z,38.40
2019-04-05T07:15:43.645Z,40.40
2019-04-05T07:18:12.363Z,38.30
2019-04-05T07:20:41.076Z,37.33
2019-04-05T07:23:09.822Z,38.40
2019-04-05T07:25:38.300Z,38.67
2019-04-05T07:28:06.803Z,32.97
2019-04-05T07:30:35.321Z,39.93
2019-04-05T07:33:03.844Z,40.83
2019-04-05T07:35:33.950Z,33.23
2019-04-05T07:38:02.971Z,28.60
2019-04-05T07:40:31.762Z,33.57
2019-04-05T07:43:00.464Z,38.77
2019-04-05T07:45:28.922Z,35.13
2019-04-05T07:47:57.351Z,28.03
2019-04-05T07:50:25.824Z,27.00
2019-04-05T07:52:54.340Z,27.93
2019-04-05T07:55:23.057Z,29.97
2019-04-05T07:57:51.516Z,26.03
2019-04-05T08:00:41.376Z,25.53
2019-04-05T08:03:09.971Z,25.43
2019-04-05T08:05:38.492Z,21.57
2019-04-05T08:08:09.417Z,23.60
2019-04-05T08:10:38.215Z,22.20
2019-04-05T08:13:07.021Z,21.63
2019-04-05T08:15:36.014Z,24.47
2019-04-05T08:18:04.907Z,21.43
2019-04-05T08:20:33.625Z,22.40
2019-04-05T08:23:02.138Z,23.20
2019-04-05T08:25:30.902Z,21.10
2019-04-05T08:27:59.443Z,19.40
2019-04-05T08:30:27.888Z,21.27
2019-04-05T08:32:56.627Z,16.33
2019-04-05T08:35:25.062Z,16.93
2019-04-05T08:37:53.511Z,19.93
2019-04-05T08:40:21.949Z,21.83
2019-04-05T08:42:50.665Z,18.80
2019-04-05T08:45:19.265Z,21.10
2019-04-05T08:47:48.004Z,18.57
2019-04-05T08:50:16.588Z,17.17
2019-04-05T08:52:45.053Z,17.07
2019-04-05T08:55:13.893Z,13.40
2019-04-05T08:57:42.344Z,18.57
2019-04-05T09:00:11.224Z,18.60
2019-04-05T09:02:39.731Z,15.50
2019-04-05T09:05:08.363Z,21.20
2019-04-05T09:07:37.095Z,20.10
2019-04-05T09:10:07.370Z,18.53
2019-04-05T09:12:36.105Z,15.40
2019-04-05T09:15:06.683Z,16.67
2019-04-05T09:17:35.142Z,20.50
2019-04-05T09:20:05.752Z,22.90
2019-04-05T09:22:34.214Z,18.37
2019-04-05T09:25:02.855Z,21.67
2019-04-05T09:27:31.430Z,20.43
2019-04-05T09:29:59.939Z,21.90
2019-04-05T09:32:28.408Z,20.53
2019-04-05T09:34:57.105Z,21.70
2019-04-05T09:37:25.835Z,22.23
2019-04-05T09:39:54.288Z,22.87
2019-04-05T09:42:22.747Z,20.40
2019-04-05T09:44:51.496Z,21.73
2019-04-05T09:47:20.268Z,17.90
2019-04-05T09:49:48.708Z,17.60
2019-04-05T09:52:17.435Z,19.23
2019-04-05T09:54:45.894Z,21.17
2019-04-05T09:57:14.372Z,28.30
2019-04-05T09:59:42.805Z,19.13
2019-04-05T10:02:11.671Z,19.30
2019-04-05T10:04:40.125Z,19.10
2019-04-05T10:07:08.846Z,20.30
2019-04-05T10:09:37.286Z,18.73
2019-04-05T10:12:06.147Z,17.83
2019-04-05T10:14:34.900Z,25.20
2019-04-05T10:17:03.632Z,21.30
2019-04-05T10:19:32.073Z,27.10
2019-04-05T10:22:00.780Z,26.07
2019-04-05T10:24:29.503Z,22.47
2019-04-05T10:26:57.995Z,26.63
2019-04-05T10:29:26.765Z,24.87
2019-04-05T10:31:55.500Z,23.20
2019-04-05T10:34:23.939Z,20.90
2019-04-05T10:36:52.446Z,20.20
2019-04-05T10:39:20.911Z,22.13
2019-04-05T10:42:02.405Z,22.07
2019-04-05T10:44:19.871Z,23.13
2019-04-05T10:46:48.314Z,21.87
2019-04-05T10:49:17.045Z,18.53
2019-04-05T10:51:45.482Z,20.70
2019-04-05T10:54:13.949Z,17.97
2019-04-05T10:56:42.459Z,17.77
2019-04-05T10:59:11.201Z,23.73
2019-04-05T11:01:39.941Z,17.43
2019-04-05T11:04:08.395Z,25.93
2019-04-05T11:06:37.139Z,23.63
2019-04-05T11:09:07.623Z,18.10
2019-04-05T11:11:36.339Z,21.60
2019-04-05T11:14:13.727Z,24.37
2019-04-05T11:16:35.778Z,22.00
2019-04-05T11:19:04.590Z,24.33
2019-04-05T11:21:33.372Z,24.70
2019-04-05T11:24:01.855Z,27.90
2019-04-05T11:26:30.286Z,22.77
2019-04-05T11:28:58.747Z,28.10
2019-04-05T11:31:27.712Z,25.37
2019-04-05T11:33:56.458Z,26.87
2019-04-05T11:36:25.386Z,26.70
2019-04-05T11:38:54.248Z,20.57
2019-04-05T11:41:25.812Z,21.67
2019-04-05T11:43:55.331Z,24.03
2019-04-05T11:46:23.969Z,21.53
2019-04-05T11:48:53.035Z,20.13
2019-04-05T11:51:21.481Z,24.70
2019-04-05T11:53:49.943Z,18.50
2019-04-05T11:56:20.557Z,21.07
2019-04-05T11:58:49.916Z,15.30
2019-04-05T12:01:20.050Z,22.97
2019-04-05T12:03:48.569Z,20.17
2019-04-05T12:06:18.667Z,19.17
2019-04-05T12:08:47.432Z,24.13
2019-04-05T12:11:16.131Z,22.37
2019-04-05T12:13:47.486Z,21.80
2019-04-05T12:16:14.798Z,21.23
2019-04-05T12:18:43.279Z,19.87
2019-04-05T12:21:11.764Z,20.93
2019-04-05T12:23:40.284Z,21.77
2019-04-05T12:26:08.823Z,24.43
2019-04-05T12:28:37.560Z,22.80
2019-04-05T12:31:06.167Z,19.83
2019-04-05T12:33:34.648Z,20.37
2019-04-05T12:36:03.479Z,21.27
2019-04-05T12:38:33.137Z,17.70
2019-04-05T12:41:03.078Z,21.17
2019-04-05T12:43:32.345Z,15.57
2019-04-05T12:46:01.120Z,20.90
2019-04-05T12:48:29.595Z,20.27
2019-04-05T12:51:01.347Z,24.07
2019-04-05T12:53:28.600Z,24.50
2019-04-05T12:55:57.411Z,20.00
2019-04-05T12:58:26.747Z,16.60
2019-04-05T13:00:56.339Z,19.20
2019-04-05T13:03:25.361Z,19.00
2019-04-05T13:05:56.825Z,26.20
2019-04-05T13:08:24.031Z,23.33
2019-04-05T13:10:55.526Z,17.17
2019-04-05T13:13:26.663Z,17.63
2019-04-05T13:15:53.419Z,19.47
2019-04-05T13:18:24.938Z,20.37
2019-04-05T13:20:52.667Z,20.33
2019-04-05T13:23:21.422Z,15.57
2019-04-05T13:25:50.032Z,20.50
2019-04-05T13:28:18.905Z,16.77
2019-04-05T13:30:48.493Z,20.33
2019-04-05T13:33:17.805Z,18.33
2019-04-05T13:35:46.263Z,22.43
2019-04-05T13:38:14.796Z,18.33
2019-04-05T13:40:57.125Z,21.27
2019-04-05T13:43:25.967Z,21.57
2019-04-05T13:45:54.888Z,22.10
2019-04-05T13:48:23.631Z,21.40
2019-04-05T13:50:52.188Z,18.50
2019-04-05T13:53:20.620Z,24.60
2019-04-05T13:55:49.457Z,20.83
2019-04-05T13:58:17.901Z,26.73
2019-04-05T14:00:48.808Z,22.73
2019-04-05T14:03:16.597Z,22.00
2019-04-05T14:05:45.397Z,23.90
2019-04-05T14:08:13.835Z,22.57
2019-04-05T14:10:42.364Z,17.83
2019-04-05T14:13:11.223Z,18.83
2019-04-05T14:15:42.139Z,21.90
2019-04-05T14:18:09.914Z,22.53
2019-04-05T14:20:38.642Z,18.43
2019-04-05T14:23:07.138Z,18.93
2019-04-05T14:25:35.668Z,21.17
2019-04-05T14:28:05.196Z,22.33
2019-04-05T14:30:33.867Z,23.00
2019-04-05T14:33:02.747Z,18.87
2019-04-05T14:35:31.484Z,22.17
2019-04-05T14:37:59.923Z,24.10
2019-04-05T14:40:29.353Z,20.07
2019-04-05T14:42:58.559Z,24.67
2019-04-05T14:45:27.151Z,24.03
2019-04-05T14:47:57.956Z,24.43
2019-04-05T14:50:28.292Z,23.40
2019-04-05T14:52:56.039Z,20.10
2019-04-05T14:55:24.750Z,24.50
2019-04-05T14:57:53.191Z,23.43
2019-04-05T15:00:22.232Z,20.40
2019-04-05T15:02:51.033Z,15.03
2019-04-05T15:05:19.512Z,21.53
2019-04-05T15:07:50.807Z,21.60
2019-04-05T15:10:18.298Z,18.50
2019-04-05T15:12:46.758Z,19.40
2019-04-05T15:15:15.350Z,20.90
2019-04-05T15:17:48.263Z,21.30
2019-04-05T15:20:15.028Z,19.37
2019-04-05T15:22:43.483Z,19.23
2019-04-05T15:25:16.594Z,17.20
2019-04-05T15:27:43.375Z,16.40
2019-04-05T15:30:15.076Z,18.07
2019-04-05T15:32:42.783Z,14.80
2019-04-05T15:35:11.673Z,15.90
2019-04-05T15:37:40.105Z,15.77
2019-04-05T15:40:10.810Z,17.03
2019-04-05T15:42:39.251Z,15.30
2019-04-05T15:45:09.335Z,12.90
2019-04-05T15:47:38.322Z,15.07
2019-04-05T15:50:08.662Z,15.90
2019-04-05T15:52:37.103Z,16.93
2019-04-05T15:55:06.570Z,14.93
2019-04-05T15:57:35.300Z,14.70
2019-04-05T16:00:06.957Z,15.67
2019-04-05T16:02:35.398Z,14.40
2019-04-05T16:05:05.158Z,19.67
2019-04-05T16:07:33.605Z,14.87
2019-04-05T16:10:02.043Z,13.33
2019-04-05T16:12:30.492Z,17.93
2019-04-05T16:14:58.947Z,16.03
2019-04-05T16:17:27.459Z,20.70
2019-04-05T16:19:55.977Z,19.03
2019-04-05T16:22:31.288Z,19.70
2019-04-05T16:24:55.199Z,20.00
2019-04-05T16:27:24.044Z,20.70
2019-04-05T16:29:52.567Z,19.00
2019-04-05T16:32:21.307Z,20.03
2019-04-05T16:34:49.995Z,19.20
2019-04-05T16:37:18.738Z,23.80
2019-04-05T16:39:47.214Z,19.57
2019-04-05T16:42:15.729Z,27.27
2019-04-05T16:44:44.159Z,25.70
2019-04-05T16:47:12.891Z,19.60
2019-04-05T16:49:41.604Z,25.20
2019-04-05T16:52:10.327Z,27.77
2019-04-05T16:54:39.026Z,28.47
2019-04-05T16:57:07.758Z,24.87
2019-04-05T16:59:36.446Z,23.93
2019-04-05T17:02:05.261Z,23.53
2019-04-05T17:04:33.961Z,24.93
2019-04-05T17:07:02.409Z,28.40
2019-04-05T17:09:30.844Z,30.70
2019-04-05T17:11:59.571Z,28.77
2019-04-05T17:14:28.089Z,35.60
2019-04-05T17:16:56.895Z,29.70
2019-04-05T17:19:25.635Z,29.40
2019-04-05T17:21:54.111Z,26.77
2019-04-05T17:24:22.841Z,30.83
2019-04-05T17:26:51.399Z,30.70
2019-04-05T17:29:20.219Z,34.50
2019-04-05T17:31:48.948Z,28.40
2019-04-05T17:34:17.376Z,35.13
2019-04-05T17:36:46.148Z,32.53
2019-04-05T17:39:14.643Z,28.23
2019-04-05T17:41:43.104Z,42.10
2019-04-05T17:44:11.811Z,37.80
2019-04-05T17:46:40.515Z,43.87
2019-04-05T17:49:08.947Z,33.00
2019-04-05T17:51:37.777Z,38.20
2019-04-05T17:54:06.335Z,39.67
2019-04-05T17:56:35.320Z,38.03
2019-04-05T17:59:04.495Z,37.33
2019-04-05T18:01:33.078Z,39.93
2019-04-05T18:04:01.567Z,40.13
2019-04-05T18:06:30.019Z,46.33
2019-04-05T18:08:58.459Z,37.83
2019-04-05T18:11:27.171Z,37.00
2019-04-05T18:13:55.599Z,46.07
2019-04-05T18:16:24.043Z,48.27
2019-04-05T18:18:52.499Z,44.43
2019-04-05T18:21:21.183Z,38.27
2019-04-05T18:23:49.650Z,40.83
2019-04-05T18:26:18.179Z,46.67
2019-04-05T18:28:46.917Z,41.10
2019-04-05T18:31:15.622Z,37.03
2019-04-05T18:33:44.071Z,44.20
2019-04-05T18:36:12.531Z,47.23
2019-04-05T18:38:41.059Z,39.17
2019-04-05T18:41:09.480Z,49.23
2019-04-05T18:43:38.222Z,42.20
2019-04-05T18:46:07.042Z,39.27
2019-04-05T18:48:35.495Z,51.23
2019-04-05T18:51:04.060Z,44.57
2019-04-05T18:53:37.832Z,42.80
2019-04-05T18:56:02.926Z,43.40
2019-04-05T18:58:31.367Z,38.60
2019-04-05T19:00:59.802Z,41.30
2019-04-05T19:03:28.522Z,42.83
2019-04-05T19:05:56.973Z,44.60
2019-04-05T19:08:38.715Z,51.80
2019-04-05T19:10:56.127Z,47.93
2019-04-05T19:13:24.915Z,42.20
2019-04-05T19:15:53.368Z,49.97
2019-04-05T19:18:21.871Z,45.53
2019-04-05T19:20:50.700Z,48.70
2019-04-05T19:23:19.154Z,46.33
2019-04-05T19:25:47.668Z,46.80
2019-04-05T19:28:16.181Z,53.30
2019-04-05T19:48:34.876Z,44.63
2019-04-05T19:50:47.315Z,44.73
2019-04-05T19:53:16.049Z,44.77
2019-04-05T19:55:44.496Z,44.07
2019-04-05T19:58:13.284Z,44.60
2019-04-05T20:00:41.779Z,46.43
2019-04-05T20:03:10.260Z,47.10
2019-04-05T20:05:38.711Z,41.60
2019-04-05T20:08:07.430Z,50.67
2019-04-05T20:10:35.934Z,43.87
2019-04-05T20:13:04.379Z,53.73
2019-04-05T20:15:33.157Z,42.00
2019-04-05T20:18:01.608Z,48.17
2019-04-05T20:20:30.055Z,51.40
2019-04-05T20:22:58.818Z,44.13
2019-04-05T20:25:27.260Z,45.73
2019-04-05T20:27:55.974Z,42.20
2019-04-05T20:30:24.415Z,42.20
2019-04-05T20:32:52.875Z,50.00
2019-04-05T20:35:21.599Z,44.13
2019-04-05T20:37:50.294Z,45.67
2019-04-05T20:40:18.755Z,48.67
2019-04-05T20:42:47.202Z,42.30
2019-04-05T20:45:15.727Z,44.20
2019-04-05T20:47:44.159Z,39.00
2019-04-05T20:50:12.787Z,48.37
2019-04-05T20:52:41.516Z,51.37
2019-04-05T20:55:10.170Z,45.47
2019-04-05T20:57:38.681Z,45.77
2019-04-05T21:00:09.015Z,49.03
2019-04-05T21:02:37.479Z,34.73
2019-04-05T21:05:07.199Z,49.93
2019-04-05T21:07:35.966Z,53.53
2019-04-05T21:10:06.658Z,48.77
2019-04-05T21:12:35.106Z,52.30
2019-04-05T21:15:04.582Z,51.00
2019-04-05T21:17:33.270Z,49.13
2019-04-05T21:20:01.741Z,48.37
2019-04-05T21:22:30.193Z,55.20
2019-04-05T21:24:58.920Z,54.63
2019-04-05T21:27:27.792Z,48.40
2019-04-05T21:29:56.292Z,56.63
2019-04-05T21:32:25.082Z,52.17
2019-04-05T21:34:53.799Z,49.10
2019-04-05T21:37:22.524Z,53.37
2019-04-05T21:39:50.978Z,50.50
2019-04-05T21:42:19.723Z,56.90
2019-04-05T21:44:48.170Z,50.53
2019-04-05T21:47:16.898Z,54.73
2019-04-05T21:49:45.627Z,62.73
2019-04-05T21:52:14.057Z,57.30
2019-04-05T21:54:47.512Z,56.27
2019-04-05T21:57:12.967Z,54.80
2019-04-05T21:59:41.718Z,52.73
2019-04-05T22:02:10.271Z,52.07
2019-04-05T22:04:39.028Z,58.40
2019-04-05T22:07:07.816Z,47.97
2019-04-05T22:09:36.281Z,53.63
2019-04-05T22:12:05.124Z,56.03
2019-04-05T22:14:33.574Z,46.03
2019-04-05T22:17:02.300Z,54.20
2019-04-05T22:19:30.755Z,55.40
2019-04-05T22:21:59.445Z,46.10
2019-04-05T22:24:27.914Z,59.03
2019-04-05T22:26:56.499Z,50.77
2019-04-05T22:29:24.978Z,58.93
2019-04-05T22:31:53.501Z,52.40
2019-04-05T22:34:22.264Z,52.70
2019-04-05T22:36:50.695Z,62.20
2019-04-05T22:39:21.454Z,68.70
2019-04-05T22:41:49.318Z,61.20
2019-04-05T22:44:17.783Z,45.27
2019-04-05T22:46:46.223Z,60.07
2019-04-05T22:49:14.678Z,57.10
2019-04-05T22:51:43.116Z,61.07
2019-04-05T22:54:11.840Z,52.03
2019-04-05T22:56:40.274Z,52.50
2019-04-05T22:59:08.742Z,62.00
2019-04-05T23:01:37.253Z,60.40
2019-04-05T23:04:05.971Z,50.00
2019-04-05T23:06:34.418Z,68.10
2019-04-05T23:09:04.609Z,65.93
2019-04-05T23:11:33.141Z,65.47
2019-04-05T23:14:01.656Z,55.00
2019-04-05T23:16:30.105Z,61.07
2019-04-05T23:18:58.635Z,59.57
2019-04-05T23:21:27.344Z,55.53
2019-04-05T23:23:55.786Z,62.73
2019-04-05T23:26:24.229Z,62.50
2019-04-05T23:28:53.035Z,60.20
2019-04-05T23:31:21.514Z,61.40
2019-04-05T23:33:49.999Z,59.93
2019-04-05T23:36:18.795Z,65.00
2019-04-05T23:38:47.314Z,63.70
2019-04-05T23:41:16.083Z,64.40
2019-04-05T23:43:44.539Z,55.83
2019-04-05T23:46:13.369Z,65.67
2019-04-05T23:48:42.184Z,67.33
2019-04-05T23:51:10.666Z,60.70
2019-04-05T23:53:39.217Z,54.07
2019-04-05T23:56:08.055Z,55.83
2019-04-05T23:58:36.502Z,72.20
